EJU51VN LIEO-LIMC
Flight info
| Callsign | EJU51VN |
|---|---|
| Flight time | N/A |
| Altitude | 34000 |
| Route | BATOX DCT BEGUD DCT UPDIN DCT SPEZI DCT IDONA DCT MEBUR |
| Aircraft | A20N/M-SDE2E3FGHIRWXY/LB1 |
Departure
| Time | 2026-05-05 19:08 |
|---|---|
| Airport | Olbia Costa Smeralda Airport (LIEO) |
Arrival
| Time | N/A |
|---|---|
| Airport | Milan Malpensa International Airport (LIMC) |
| Time | Latitude | Longitude | Altitude | Speed | Heading |
|---|---|---|---|---|---|
| 2026-05-05 18:38 | 40.90242 | 9.51661 | 48 ft | 0 kts | 326° |
| 2026-05-05 18:57 | 40.90239 | 9.51664 | 48 ft | 2 kts | 326° |
| 2026-05-05 18:58 | 40.90226 | 9.51675 | 48 ft | 2 kts | 326° |
| 2026-05-05 18:58 | 40.90214 | 9.51686 | 48 ft | 2 kts | 326° |
| 2026-05-05 18:58 | 40.90203 | 9.51700 | 48 ft | 2 kts | 291° |
| 2026-05-05 18:58 | 40.90202 | 9.51720 | 48 ft | 2 kts | 245° |
| 2026-05-05 18:59 | 40.90212 | 9.51735 | 48 ft | 2 kts | 227° |
| 2026-05-05 18:59 | 40.90220 | 9.51751 | 48 ft | 1 kts | 238° |
| 2026-05-05 18:59 | 40.90222 | 9.51755 | 48 ft | 0 kts | 235° |
| 2026-05-05 19:02 | 40.90222 | 9.51754 | 48 ft | 0 kts | 235° |
| 2026-05-05 19:02 | 40.90212 | 9.51736 | 48 ft | 4 kts | 236° |
| 2026-05-05 19:03 | 40.90190 | 9.51694 | 48 ft | 7 kts | 235° |
| 2026-05-05 19:03 | 40.90157 | 9.51630 | 48 ft | 9 kts | 236° |
| 2026-05-05 19:03 | 40.90112 | 9.51544 | 48 ft | 12 kts | 236° |
| 2026-05-05 19:03 | 40.90066 | 9.51483 | 48 ft | 7 kts | 162° |
| 2026-05-05 19:04 | 40.90010 | 9.51514 | 48 ft | 9 kts | 171° |
| 2026-05-05 19:04 | 40.89936 | 9.51492 | 48 ft | 12 kts | 218° |
| 2026-05-05 19:04 | 40.89878 | 9.51392 | 48 ft | 14 kts | 236° |
| 2026-05-05 19:04 | 40.89816 | 9.51273 | 48 ft | 16 kts | 236° |
| 2026-05-05 19:05 | 40.89751 | 9.51150 | 48 ft | 16 kts | 236° |
| 2026-05-05 19:05 | 40.89684 | 9.51022 | 48 ft | 16 kts | 236° |
| 2026-05-05 19:05 | 40.89616 | 9.50892 | 48 ft | 17 kts | 236° |
| 2026-05-05 19:05 | 40.89548 | 9.50760 | 49 ft | 17 kts | 235° |
| 2026-05-05 19:06 | 40.89478 | 9.50628 | 48 ft | 17 kts | 236° |
| 2026-05-05 19:06 | 40.89412 | 9.50503 | 49 ft | 13 kts | 235° |
| 2026-05-05 19:06 | 40.89352 | 9.50441 | 49 ft | 10 kts | 192° |
| 2026-05-05 19:06 | 40.89286 | 9.50469 | 49 ft | 10 kts | 124° |
| 2026-05-05 19:07 | 40.89269 | 9.50560 | 49 ft | 9 kts | 104° |
| 2026-05-05 19:07 | 40.89265 | 9.50611 | 49 ft | 5 kts | 69° |
| 2026-05-05 19:07 | 40.89270 | 9.50623 | 49 ft | 0 kts | 54° |
| 2026-05-05 19:08 | 40.89366 | 9.50806 | 49 ft | 65 kts | 56° |
| 2026-05-05 19:08 | 40.89778 | 9.51593 | 49 ft | 141 kts | 56° |
| 2026-05-05 19:08 | 40.90400 | 9.52802 | 494 ft | 165 kts | 57° |
| 2026-05-05 19:08 | 40.91040 | 9.54045 | 1277 ft | 169 kts | 57° |
| 2026-05-05 19:09 | 40.91705 | 9.55312 | 2064 ft | 174 kts | 57° |
| 2026-05-05 19:09 | 40.92429 | 9.56676 | 2660 ft | 189 kts | 56° |
| 2026-05-05 19:09 | 40.93215 | 9.58153 | 3234 ft | 206 kts | 56° |
| 2026-05-05 19:09 | 40.94069 | 9.59752 | 3794 ft | 226 kts | 56° |
| 2026-05-05 19:10 | 40.95024 | 9.61539 | 4330 ft | 249 kts | 55° |
| 2026-05-05 19:10 | 40.96060 | 9.63478 | 5102 ft | 263 kts | 55° |
| 2026-05-05 19:10 | 40.97111 | 9.65448 | 6036 ft | 269 kts | 55° |
| 2026-05-05 19:10 | 40.98191 | 9.67474 | 6994 ft | 274 kts | 54° |
| 2026-05-05 19:11 | 40.99250 | 9.69570 | 7907 ft | 281 kts | 57° |
| 2026-05-05 19:11 | 41.00331 | 9.71803 | 8563 ft | 298 kts | 58° |
| 2026-05-05 19:11 | 41.01472 | 9.74178 | 9404 ft | 308 kts | 57° |
| 2026-05-05 19:11 | 41.02614 | 9.76557 | 10359 ft | 312 kts | 57° |
| 2026-05-05 19:12 | 41.03797 | 9.79021 | 11102 ft | 323 kts | 57° |
| 2026-05-05 19:12 | 41.05009 | 9.81540 | 11933 ft | 330 kts | 58° |
| 2026-05-05 19:12 | 41.06234 | 9.84092 | 12818 ft | 334 kts | 58° |
| 2026-05-05 19:12 | 41.07484 | 9.86699 | 13711 ft | 338 kts | 58° |
| 2026-05-05 19:13 | 41.08742 | 9.89324 | 14550 ft | 342 kts | 58° |
| 2026-05-05 19:13 | 41.10022 | 9.92002 | 15344 ft | 348 kts | 58° |
| 2026-05-05 19:13 | 41.11324 | 9.94727 | 16137 ft | 353 kts | 58° |
| 2026-05-05 19:13 | 41.12627 | 9.97455 | 16894 ft | 357 kts | 58° |
| 2026-05-05 19:14 | 41.13956 | 10.00243 | 17536 ft | 362 kts | 58° |
| 2026-05-05 19:14 | 41.15323 | 10.03111 | 18188 ft | 368 kts | 58° |
| 2026-05-05 19:14 | 41.16692 | 10.05987 | 18917 ft | 372 kts | 58° |
| 2026-05-05 19:14 | 41.18060 | 10.08865 | 19583 ft | 377 kts | 58° |
| 2026-05-05 19:15 | 41.19496 | 10.11782 | 20244 ft | 382 kts | 52° |
| 2026-05-05 19:15 | 41.21492 | 10.14129 | 20858 ft | 384 kts | 26° |
| 2026-05-05 19:15 | 41.23977 | 10.15164 | 21508 ft | 378 kts | 0° |
| 2026-05-05 19:15 | 41.26589 | 10.14938 | 22199 ft | 373 kts | 346° |
| 2026-05-05 19:16 | 41.29153 | 10.14398 | 22861 ft | 377 kts | 345° |
| 2026-05-05 19:16 | 41.31735 | 10.13861 | 23480 ft | 382 kts | 346° |
| 2026-05-05 19:16 | 41.34384 | 10.13336 | 24138 ft | 386 kts | 346° |
| 2026-05-05 19:16 | 41.37030 | 10.12830 | 24780 ft | 389 kts | 346° |
| 2026-05-05 19:17 | 41.39718 | 10.12327 | 25398 ft | 393 kts | 346° |
| 2026-05-05 19:17 | 41.42448 | 10.11825 | 25991 ft | 397 kts | 346° |
| 2026-05-05 19:17 | 41.45209 | 10.11318 | 26614 ft | 400 kts | 345° |
| 2026-05-05 19:17 | 41.47938 | 10.10819 | 27177 ft | 403 kts | 345° |
| 2026-05-05 19:18 | 41.50740 | 10.10308 | 27691 ft | 407 kts | 345° |
| 2026-05-05 19:18 | 41.53547 | 10.09794 | 28217 ft | 410 kts | 345° |
| 2026-05-05 19:18 | 41.56372 | 10.09278 | 28713 ft | 414 kts | 344° |
| 2026-05-05 19:18 | 41.59256 | 10.08752 | 29205 ft | 416 kts | 344° |
| 2026-05-05 19:19 | 41.62127 | 10.08228 | 29654 ft | 419 kts | 344° |
| 2026-05-05 19:19 | 41.65017 | 10.07699 | 30078 ft | 423 kts | 343° |
| 2026-05-05 19:19 | 41.67931 | 10.07164 | 30505 ft | 426 kts | 344° |
| 2026-05-05 19:19 | 41.70874 | 10.06623 | 30934 ft | 428 kts | 344° |
| 2026-05-05 19:20 | 41.73841 | 10.06080 | 31375 ft | 430 kts | 343° |
| 2026-05-05 19:20 | 41.76792 | 10.05540 | 31883 ft | 430 kts | 343° |
| 2026-05-05 19:20 | 41.79735 | 10.05001 | 32443 ft | 428 kts | 343° |
| 2026-05-05 19:20 | 41.82683 | 10.04459 | 32894 ft | 429 kts | 344° |
| 2026-05-05 19:21 | 41.85631 | 10.03919 | 33331 ft | 430 kts | 343° |
| 2026-05-05 19:21 | 41.88627 | 10.03367 | 33695 ft | 432 kts | 343° |
| 2026-05-05 19:21 | 41.91598 | 10.02817 | 34011 ft | 435 kts | 343° |
| 2026-05-05 19:21 | 41.94615 | 10.02261 | 34407 ft | 436 kts | 343° |
| 2026-05-05 19:22 | 41.97586 | 10.01711 | 34801 ft | 435 kts | 343° |
| 2026-05-05 19:22 | 42.00576 | 10.01160 | 35236 ft | 433 kts | 344° |
| 2026-05-05 19:22 | 42.03578 | 10.00606 | 35662 ft | 431 kts | 344° |
| 2026-05-05 19:22 | 42.06513 | 10.00065 | 35913 ft | 429 kts | 343° |
| 2026-05-05 19:23 | 42.12413 | 9.98971 | 35929 ft | 429 kts | 344° |
| 2026-05-05 19:23 | 42.18339 | 9.97866 | 35930 ft | 431 kts | 344° |
| 2026-05-05 19:24 | 42.24257 | 9.96770 | 35939 ft | 431 kts | 344° |
| 2026-05-05 19:24 | 42.30189 | 9.95666 | 35940 ft | 429 kts | 343° |
| 2026-05-05 19:25 | 42.36123 | 9.94556 | 35941 ft | 431 kts | 343° |
| 2026-05-05 19:25 | 42.42036 | 9.93451 | 35944 ft | 431 kts | 343° |
| 2026-05-05 19:26 | 42.47979 | 9.92337 | 35949 ft | 432 kts | 343° |
| 2026-05-05 19:26 | 42.53938 | 9.91220 | 35950 ft | 433 kts | 343° |
| 2026-05-05 19:27 | 42.59938 | 9.90094 | 35950 ft | 432 kts | 343° |
| 2026-05-05 19:27 | 42.65870 | 9.88977 | 35957 ft | 432 kts | 344° |
| 2026-05-05 19:28 | 42.71813 | 9.87857 | 35951 ft | 433 kts | 343° |
| 2026-05-05 19:28 | 42.77806 | 9.86954 | 35951 ft | 438 kts | 349° |
| 2026-05-05 19:29 | 42.83957 | 9.86971 | 35951 ft | 443 kts | 354° |
| 2026-05-05 19:29 | 42.90132 | 9.87360 | 35949 ft | 445 kts | 355° |
| 2026-05-05 19:30 | 42.96281 | 9.87758 | 35950 ft | 445 kts | 355° |
| 2026-05-05 19:30 | 43.02479 | 9.88142 | 35950 ft | 447 kts | 355° |
| 2026-05-05 19:31 | 43.08683 | 9.88524 | 35950 ft | 448 kts | 355° |
| 2026-05-05 19:31 | 43.14894 | 9.88909 | 35947 ft | 447 kts | 355° |
| 2026-05-05 19:32 | 43.21119 | 9.89290 | 35952 ft | 448 kts | 355° |
| 2026-05-05 19:32 | 43.27323 | 9.89674 | 35947 ft | 447 kts | 355° |
| 2026-05-05 19:33 | 43.33509 | 9.89669 | 35947 ft | 438 kts | 346° |
| 2026-05-05 19:33 | 43.39366 | 9.88116 | 35951 ft | 425 kts | 334° |
| 2026-05-05 19:34 | 43.44753 | 9.85074 | 35948 ft | 412 kts | 323° |
| 2026-05-05 19:35 | 43.52256 | 9.79256 | 35947 ft | 414 kts | 321° |
| 2026-05-05 19:35 | 43.57240 | 9.75369 | 35946 ft | 414 kts | 321° |
| 2026-05-05 19:36 | 43.62265 | 9.71458 | 35948 ft | 414 kts | 321° |
| 2026-05-05 19:36 | 43.67250 | 9.67576 | 35950 ft | 414 kts | 321° |
| 2026-05-05 19:37 | 43.72284 | 9.63651 | 35951 ft | 413 kts | 321° |
| 2026-05-05 19:37 | 43.77271 | 9.59755 | 35948 ft | 414 kts | 321° |
| 2026-05-05 19:38 | 43.82266 | 9.55846 | 35948 ft | 413 kts | 321° |
| 2026-05-05 19:38 | 43.87262 | 9.51934 | 35948 ft | 413 kts | 321° |
| 2026-05-05 19:39 | 43.92243 | 9.48023 | 35947 ft | 413 kts | 321° |
| 2026-05-05 19:39 | 43.97435 | 9.44401 | 35948 ft | 423 kts | 328° |
| 2026-05-05 19:40 | 44.02977 | 9.41653 | 35763 ft | 425 kts | 335° |
| 2026-05-05 19:40 | 44.05838 | 9.40615 | 35233 ft | 428 kts | 337° |
| 2026-05-05 19:40 | 44.08740 | 9.39655 | 34657 ft | 430 kts | 337° |
| 2026-05-05 19:40 | 44.11662 | 9.38707 | 34116 ft | 429 kts | 337° |
| 2026-05-05 19:41 | 44.14565 | 9.37758 | 33490 ft | 429 kts | 337° |
| 2026-05-05 19:41 | 44.17453 | 9.36800 | 32800 ft | 431 kts | 337° |
| 2026-05-05 19:41 | 44.20345 | 9.35841 | 32116 ft | 432 kts | 337° |
| 2026-05-05 19:41 | 44.23273 | 9.34866 | 31487 ft | 431 kts | 337° |
| 2026-05-05 19:42 | 44.26179 | 9.33899 | 30863 ft | 431 kts | 337° |
| 2026-05-05 19:42 | 44.29077 | 9.32935 | 30400 ft | 426 kts | 337° |
| 2026-05-05 19:42 | 44.31945 | 9.31980 | 29862 ft | 424 kts | 338° |
| 2026-05-05 19:42 | 44.34816 | 9.31016 | 29148 ft | 426 kts | 338° |
| 2026-05-05 19:43 | 44.37682 | 9.30054 | 28428 ft | 428 kts | 338° |
| 2026-05-05 19:43 | 44.40573 | 9.29081 | 27655 ft | 431 kts | 339° |
| 2026-05-05 19:43 | 44.43483 | 9.28105 | 26880 ft | 433 kts | 340° |
| 2026-05-05 19:43 | 44.46408 | 9.27125 | 26063 ft | 436 kts | 340° |
| 2026-05-05 19:44 | 44.49355 | 9.26137 | 25298 ft | 437 kts | 340° |
| 2026-05-05 19:44 | 44.52311 | 9.25144 | 24530 ft | 438 kts | 341° |
| 2026-05-05 19:44 | 44.55268 | 9.24152 | 23764 ft | 439 kts | 341° |
| 2026-05-05 19:44 | 44.58229 | 9.23158 | 23083 ft | 437 kts | 341° |
| 2026-05-05 19:45 | 44.61138 | 9.22186 | 22456 ft | 434 kts | 341° |
| 2026-05-05 19:45 | 44.64060 | 9.21206 | 21824 ft | 431 kts | 341° |
| 2026-05-05 19:45 | 44.66977 | 9.20222 | 21184 ft | 428 kts | 342° |
| 2026-05-05 19:45 | 44.69861 | 9.19245 | 20553 ft | 425 kts | 342° |